createdAt,value
2022-07-30T00:04:07.324Z,12240.00
2022-07-30T00:09:14.459Z,12276.00
2022-07-30T00:14:21.693Z,12348.00
2022-07-30T00:19:28.889Z,12312.00
2022-07-30T00:24:36.054Z,12276.00
2022-07-30T00:29:44.967Z,12420.00
2022-07-30T00:34:50.519Z,12312.00
2022-07-30T00:39:57.705Z,-36.00
2022-07-30T00:45:04.908Z,-36.00
2022-07-30T00:50:12.106Z,-36.00
2022-07-30T00:55:19.341Z,0.00
2022-07-30T01:00:26.475Z,-36.00
2022-07-30T01:05:33.708Z,-36.00
2022-07-30T01:10:40.935Z,-36.00
2022-07-30T01:15:48.202Z,-36.00
2022-07-30T01:20:55.425Z,-36.00
2022-07-30T01:26:02.607Z,-72.00
2022-07-30T01:31:09.892Z,-36.00
2022-07-30T01:36:17.006Z,-36.00
2022-07-30T01:41:24.267Z,-36.00
2022-07-30T01:46:31.440Z,-36.00
2022-07-30T01:51:38.624Z,-36.00
2022-07-30T01:56:45.831Z,-72.00
2022-07-30T02:01:53.106Z,-36.00
2022-07-30T02:07:00.589Z,-36.00
2022-07-30T02:12:07.571Z,-36.00
2022-07-30T02:17:18.835Z,-36.00
2022-07-30T02:22:23.416Z,-36.00
2022-07-30T02:27:29.239Z,-36.00
2022-07-30T02:32:36.524Z,-36.00
2022-07-30T02:37:44.427Z,-36.00
2022-07-30T02:42:50.873Z,-72.00
2022-07-30T02:47:58.063Z,-36.00
2022-07-30T02:53:05.338Z,-36.00
2022-07-30T02:58:12.600Z,-36.00
2022-07-30T03:03:19.824Z,-36.00
2022-07-30T03:08:27.126Z,-36.00
2022-07-30T03:13:34.411Z,-36.00
2022-07-30T03:18:41.638Z,-36.00
2022-07-30T03:23:48.873Z,-36.00
2022-07-30T03:28:56.062Z,-36.00
2022-07-30T03:34:03.297Z,-36.00
2022-07-30T03:39:10.577Z,-36.00
2022-07-30T03:44:17.875Z,-36.00
2022-07-30T03:49:25.184Z,-36.00
2022-07-30T03:54:32.297Z,-36.00
2022-07-30T03:59:39.518Z,-36.00
2022-07-30T04:04:46.758Z,36.00
2022-07-30T04:09:54.022Z,0.00
2022-07-30T04:15:01.287Z,0.00
2022-07-30T04:20:08.499Z,36.00
2022-07-30T04:25:24.405Z,72.00
2022-07-30T04:30:22.991Z,72.00
2022-07-30T04:35:49.852Z,72.00
2022-07-30T04:40:37.658Z,144.00
2022-07-30T04:45:44.865Z,288.00
2022-07-30T04:50:52.032Z,360.00
2022-07-30T04:55:59.277Z,468.00
2022-07-30T05:01:06.494Z,468.00
2022-07-30T05:06:13.733Z,468.00
2022-07-30T05:11:20.974Z,504.00
2022-07-30T05:16:28.284Z,540.00
2022-07-30T05:21:35.400Z,648.00
2022-07-30T05:26:42.592Z,504.00
2022-07-30T05:31:49.822Z,648.00
2022-07-30T05:36:57.025Z,792.00
2022-07-30T05:42:04.263Z,684.00
2022-07-30T05:47:11.464Z,540.00
2022-07-30T05:52:18.707Z,648.00
2022-07-30T05:57:25.912Z,828.00
2022-07-30T06:02:33.111Z,1260.00
2022-07-30T06:07:40.397Z,1404.00
2022-07-30T06:12:47.578Z,1440.00
2022-07-30T06:18:01.894Z,1152.00
2022-07-30T06:23:02.157Z,1836.00
2022-07-30T06:28:34.700Z,2016.00
2022-07-30T06:33:16.515Z,1584.00
2022-07-30T06:38:23.760Z,1548.00
2022-07-30T06:43:30.988Z,1908.00
2022-07-30T06:48:38.182Z,2304.00
2022-07-30T06:53:45.454Z,2088.00
2022-07-30T06:58:52.659Z,2772.00
2022-07-30T07:03:59.916Z,3132.00
2022-07-30T07:09:07.098Z,2988.00
2022-07-30T07:14:14.311Z,2880.00
2022-07-30T07:20:01.442Z,2808.00
2022-07-30T07:24:28.833Z,3276.00
2022-07-30T07:29:36.031Z,2196.00
2022-07-30T07:34:43.212Z,2592.00
2022-07-30T07:39:50.424Z,2772.00
2022-07-30T07:44:57.612Z,2016.00
2022-07-30T07:50:04.789Z,16488.00
2022-07-30T07:55:12.189Z,16236.00
2022-07-30T08:00:19.379Z,16848.00
2022-07-30T08:05:56.939Z,18720.00
2022-07-30T08:10:33.795Z,18756.00
2022-07-30T08:15:41.042Z,18936.00
2022-07-30T08:20:48.278Z,18252.00
2022-07-30T08:25:55.487Z,17748.00
2022-07-30T08:31:02.798Z,18504.00
2022-07-30T08:36:10.300Z,18288.00
2022-07-30T08:41:17.159Z,18216.00
2022-07-30T08:46:24.393Z,18036.00
2022-07-30T08:51:31.625Z,18324.00
2022-07-30T08:56:38.795Z,18216.00
2022-07-30T09:01:45.993Z,18360.00
2022-07-30T09:06:53.172Z,18612.00
2022-07-30T09:12:00.371Z,19296.00
2022-07-30T09:17:07.536Z,21060.00
2022-07-30T09:22:14.739Z,23400.00
2022-07-30T09:27:21.899Z,25380.00
2022-07-30T09:32:29.126Z,25848.00
2022-07-30T09:37:36.269Z,21852.00
2022-07-30T09:42:43.525Z,21420.00
2022-07-30T09:47:50.745Z,17928.00
2022-07-30T09:52:57.946Z,17388.00
2022-07-30T09:58:05.160Z,16596.00
2022-07-30T10:03:33.085Z,22248.00
2022-07-30T10:08:19.691Z,22752.00
2022-07-30T10:13:31.648Z,24120.00
2022-07-30T10:18:34.492Z,24156.00
2022-07-30T10:23:44.413Z,25452.00
2022-07-30T10:28:48.649Z,25380.00
2022-07-30T10:33:55.909Z,19620.00
2022-07-30T10:39:03.127Z,22356.00
2022-07-30T10:44:11.024Z,20268.00
2022-07-30T10:49:18.618Z,22032.00
2022-07-30T10:54:25.573Z,20520.00
2022-07-30T10:59:32.911Z,21924.00
2022-07-30T11:04:40.165Z,17424.00
2022-07-30T11:09:49.739Z,18900.00
2022-07-30T11:14:54.630Z,20700.00
2022-07-30T11:20:02.148Z,20736.00
2022-07-30T11:25:13.204Z,23112.00
2022-07-30T11:30:16.946Z,24228.00
2022-07-30T11:35:23.769Z,25560.00
2022-07-30T11:40:30.750Z,24804.00
2022-07-30T11:45:37.973Z,22572.00
2022-07-30T11:50:45.190Z,21492.00
2022-07-30T11:55:52.410Z,22932.00
2022-07-30T12:00:59.591Z,23436.00
2022-07-30T12:06:06.852Z,21240.00
2022-07-30T12:11:14.035Z,22248.00
2022-07-30T12:16:21.277Z,24300.00
2022-07-30T12:21:28.532Z,16956.00
2022-07-30T12:26:35.700Z,16668.00
2022-07-30T12:31:42.914Z,21744.00
2022-07-30T12:36:50.138Z,25272.00
2022-07-30T12:41:57.368Z,23904.00
2022-07-30T12:47:05.221Z,26028.00
2022-07-30T12:52:18.556Z,25812.00
2022-07-30T12:57:18.992Z,19368.00
2022-07-30T13:02:26.202Z,19656.00
2022-07-30T13:07:33.389Z,22644.00
2022-07-30T13:12:40.582Z,23688.00
2022-07-30T13:17:47.775Z,21528.00
2022-07-30T13:22:58.885Z,19332.00
2022-07-30T13:28:02.216Z,24444.00
2022-07-30T13:33:09.415Z,24804.00
2022-07-30T13:38:16.614Z,25020.00
2022-07-30T13:43:23.888Z,23760.00
2022-07-30T13:48:31.103Z,18684.00
2022-07-30T13:53:38.340Z,17568.00
2022-07-30T13:58:45.561Z,17784.00
2022-07-30T14:03:52.917Z,16308.00
2022-07-30T14:09:00.099Z,17820.00
2022-07-30T14:14:07.345Z,17064.00
2022-07-30T14:19:23.593Z,16812.00
2022-07-30T14:24:21.779Z,16920.00
2022-07-30T14:29:29.024Z,16668.00
2022-07-30T14:34:36.222Z,17136.00
2022-07-30T14:39:43.449Z,17532.00
2022-07-30T14:44:54.208Z,18216.00
2022-07-30T14:49:57.894Z,18648.00
2022-07-30T14:55:06.742Z,18792.00
2022-07-30T15:00:12.354Z,14940.00
2022-07-30T15:05:19.633Z,18936.00
2022-07-30T15:10:26.829Z,19800.00
2022-07-30T15:15:38.062Z,20376.00
2022-07-30T15:20:41.323Z,20700.00
2022-07-30T15:25:48.591Z,19800.00
2022-07-30T15:30:55.768Z,19116.00
2022-07-30T15:36:02.958Z,19404.00
2022-07-30T15:41:13.458Z,19332.00
2022-07-30T15:46:17.342Z,19620.00
2022-07-30T15:51:24.625Z,19944.00
2022-07-30T15:56:31.863Z,20880.00
2022-07-30T16:01:39.187Z,16668.00
2022-07-30T16:06:46.329Z,19404.00
2022-07-30T16:11:53.574Z,23112.00
2022-07-30T16:17:00.743Z,22104.00
2022-07-30T16:22:07.925Z,21960.00
2022-07-30T16:27:15.116Z,17640.00
2022-07-30T16:32:22.293Z,16632.00
2022-07-30T16:37:29.538Z,19980.00
2022-07-30T16:42:36.742Z,20736.00
2022-07-30T16:47:43.906Z,21060.00
2022-07-30T16:52:51.116Z,19944.00
2022-07-30T16:57:58.364Z,19800.00
2022-07-30T17:03:05.521Z,17748.00
2022-07-30T17:08:12.786Z,18540.00
2022-07-30T17:13:19.980Z,19800.00
2022-07-30T17:18:27.251Z,17352.00
2022-07-30T17:23:34.459Z,13392.00
2022-07-30T17:28:41.733Z,12852.00
2022-07-30T17:33:48.975Z,11268.00
2022-07-30T17:38:56.212Z,16560.00
2022-07-30T17:44:03.413Z,17568.00
2022-07-30T17:49:10.746Z,15516.00
2022-07-30T17:54:17.982Z,14436.00
2022-07-30T17:59:25.244Z,11196.00
2022-07-30T18:04:32.520Z,8784.00
2022-07-30T18:09:40.158Z,10296.00
2022-07-30T18:14:46.993Z,5652.00
2022-07-30T18:19:54.229Z,5040.00
2022-07-30T18:25:01.475Z,8316.00
2022-07-30T18:30:08.746Z,4608.00
2022-07-30T18:35:15.935Z,2304.00
2022-07-30T18:40:24.227Z,1908.00
2022-07-30T18:45:35.254Z,900.00
2022-07-30T18:50:37.587Z,540.00
2022-07-30T18:55:44.850Z,432.00
2022-07-30T19:00:52.026Z,1332.00
2022-07-30T19:05:59.163Z,1476.00
2022-07-30T19:11:06.339Z,1152.00
2022-07-30T19:16:13.588Z,8640.00
2022-07-30T19:21:20.805Z,72.00
2022-07-30T19:26:27.989Z,36.00
2022-07-30T19:31:35.270Z,36.00
2022-07-30T19:36:42.438Z,0.00
2022-07-30T19:41:50.849Z,36.00
2022-07-30T19:46:57.103Z,0.00
2022-07-30T19:52:17.686Z,0.00
2022-07-30T19:57:11.502Z,0.00
2022-07-30T20:02:18.802Z,11052.00
2022-07-30T20:07:27.638Z,11700.00
2022-07-30T20:12:33.280Z,11556.00
2022-07-30T20:17:40.448Z,11664.00
2022-07-30T20:22:47.760Z,11880.00
2022-07-30T20:27:55.002Z,11952.00
2022-07-30T20:33:02.214Z,11700.00
2022-07-30T20:38:10.319Z,11268.00
2022-07-30T20:43:16.971Z,11268.00
2022-07-30T20:48:24.404Z,11592.00
2022-07-30T20:53:33.619Z,11556.00
2022-07-30T20:58:38.775Z,14220.00
2022-07-30T21:08:53.293Z,11376.00
2022-07-30T21:14:00.511Z,10908.00
2022-07-30T21:19:07.774Z,11016.00
2022-07-30T21:24:15.083Z,10908.00
2022-07-30T21:29:22.260Z,10872.00
2022-07-30T21:34:35.221Z,10836.00
2022-07-30T21:39:39.804Z,10944.00
2022-07-30T21:44:44.300Z,10872.00
2022-07-30T21:49:51.530Z,10980.00
2022-07-30T21:54:58.786Z,11376.00
2022-07-30T22:00:06.018Z,11988.00
2022-07-30T22:05:13.279Z,11088.00
2022-07-30T22:10:21.358Z,11160.00
2022-07-30T22:15:27.871Z,5508.00
2022-07-30T22:20:35.092Z,5580.00
2022-07-30T22:25:44.118Z,5832.00
2022-07-30T22:30:49.477Z,6048.00
2022-07-30T22:35:56.740Z,6084.00
2022-07-30T22:41:03.929Z,6156.00
2022-07-30T22:46:27.200Z,6048.00
2022-07-30T22:51:18.296Z,6228.00
2022-07-30T22:56:25.541Z,6156.00
2022-07-30T23:01:32.699Z,6084.00
2022-07-30T23:06:41.100Z,6120.00
2022-07-30T23:11:47.125Z,5940.00
2022-07-30T23:12:32.093Z,13896.00
2022-07-30T23:16:54.305Z,5724.00
2022-07-30T23:22:01.522Z,5868.00
2022-07-30T23:27:08.697Z,5688.00
2022-07-30T23:32:15.894Z,5688.00
2022-07-30T23:37:23.081Z,5760.00
2022-07-30T23:42:30.262Z,5724.00
2022-07-30T23:48:01.785Z,5688.00
2022-07-30T23:52:45.070Z,5724.00
2022-07-30T23:57:52.270Z,5724.00
